OKTOBER, 15TH 2021

 

MET REPORT SMJP 151500Z WIND RWY 11 TDZ 080/7KT VIS RWY 11 TDZ 10KM END 10KM CLD RWY 11 FEW 2000FT T33 DP21 QNH 1012HPA QFE RWY 11 1010HPA TREND NOSIG=

 

METAR SMJP 151500Z 08007KT 9999 FEW020 33/21 Q1012 NOSIG=

METAR SMZO 151500Z 13006KT 9999 SCT025 32/23 Q1011 NOSIG=

METAR SMNI 151500Z 03011KT 9999 SCT018 30/24 Q1011=